Time;durP1;ratioP1;P1;durP2;ratioP2;P2;SDS_P1;SDS_P2;PMS_P1;PMS_P2;Temp;Humidity;BMP_temperature;BMP_pressure;BME280_temperature;BME280_humidity;BME280_pressure;Samples;Min_cycle;Max_cycle;Signal;HPM_P1;HPM_P2
2022/02/11 00:01:24;;;;;;;8.90;1.92;;;4.20;99.90;;;;;;6280060;22;20007;-92
2022/02/11 00:08:58;;;;;;;15.18;2.22;;;4.20;99.90;;;;;;6318537;22;20007;-92
2022/02/11 00:11:36;;;;;;;15.35;3.13;;;4.20;99.90;;;;;;6280778;22;20000;-92
2022/02/11 00:14:04;;;;;;;14.23;2.95;;;4.20;99.90;;;;;;6280739;22;20030;-93
2022/02/11 00:16:30;;;;;;;16.25;2.65;;;4.20;99.90;;;;;;6280352;22;20010;-94
2022/02/11 00:18:59;;;;;;;15.48;2.58;;;4.20;99.90;;;;;;6279669;22;20022;-92
2022/02/11 00:21:26;;;;;;;13.63;2.38;;;4.10;99.90;;;;;;6279849;22;20011;-93
2022/02/11 00:23:51;;;;;;;12.80;2.22;;;4.10;99.90;;;;;;6280562;22;20023;-94
2022/02/11 00:26:17;;;;;;;11.35;2.53;;;4.10;99.90;;;;;;6280554;22;20003;-91
2022/02/11 00:33:57;;;;;;;13.48;2.17;;;4.10;99.90;;;;;;6308702;22;20061;-91
2022/02/11 00:36:28;;;;;;;10.70;2.17;;;4.10;99.90;;;;;;6282575;22;20446;-92
2022/02/11 00:39:16;;;;;;;15.77;2.63;;;4.10;99.90;;;;;;6281519;22;20365;-92
2022/02/11 00:53:40;;;;;;;16.08;2.53;;;3.90;99.90;;;;;;6309154;22;20060;-91
2022/02/11 01:04:06;;;;;;;14.80;2.60;;;3.90;99.90;;;;;;6318054;22;20030;-92
2022/02/11 01:06:11;;;;;;;8.43;2.05;;;3.80;99.90;;;;;;6293718;22;20439;-93
2022/02/11 01:08:39;;;;;;;12.57;4.53;;;3.80;99.90;;;;;;6281557;22;20007;-92
2022/02/11 01:11:05;;;;;;;12.70;2.58;;;3.80;99.90;;;;;;6281828;22;20015;-93
2022/02/11 01:13:31;;;;;;;12.63;2.33;;;3.70;99.90;;;;;;6281947;22;20111;-93
2022/02/11 01:16:05;;;;;;;14.25;2.67;;;3.70;99.90;;;;;;6282192;22;20010;-94
2022/02/11 01:18:31;;;;;;;10.77;2.60;;;3.70;99.90;;;;;;6281675;22;20110;-93
2022/02/11 01:21:06;;;;;;;13.40;2.50;;;3.60;99.90;;;;;;6288720;22;19995;-92
2022/02/11 01:23:48;;;;;;;19.40;2.42;;;3.60;99.90;;;;;;6285011;22;20385;-93
2022/02/11 01:58:04;;;;;;;6.85;1.80;;;3.60;99.90;;;;;;6319601;22;20010;-93
2022/02/11 02:38:32;;;;;;;12.43;3.58;;;3.20;99.90;;;;;;6324019;22;20064;-91
2022/02/11 02:56:50;;;;;;;13.70;2.55;;;2.90;99.90;;;;;;6308481;22;20037;-92
2022/02/11 04:20:51;;;;;;;9.95;2.63;;;2.10;99.90;;;;;;6309640;22;20017;-92
2022/02/11 04:23:34;;;;;;;10.85;2.35;;;2.10;99.90;;;;;;6309506;22;20658;-92
2022/02/11 04:56:41;;;;;;;10.05;2.13;;;1.60;99.90;;;;;;6186004;23;20016;-91
2022/02/11 05:01:51;;;;;;;10.35;2.30;;;1.60;99.90;;;;;;6191676;23;19911;-89
2022/02/11 05:04:17;;;;;;;14.18;2.40;;;1.60;99.90;;;;;;6180247;22;20091;-90
2022/02/11 05:06:42;;;;;;;9.95;2.38;;;1.50;99.90;;;;;;6295722;22;20049;-91
2022/02/11 05:09:08;;;;;;;10.30;2.70;;;1.50;99.90;;;;;;6282496;22;20037;-93
2022/02/11 05:11:34;;;;;;;8.90;2.90;;;1.50;99.90;;;;;;6282730;22;20006;-91
2022/02/11 05:14:00;;;;;;;15.05;2.80;;;1.50;99.90;;;;;;6282091;22;20003;-91
2022/02/11 05:16:25;;;;;;;11.60;2.10;;;1.40;99.90;;;;;;6282052;22;20011;-90
2022/02/11 05:18:51;;;;;;;15.40;4.90;;;1.40;99.90;;;;;;6282199;22;20007;-91
2022/02/11 05:21:17;;;;;;;10.02;2.17;;;1.30;99.90;;;;;;6281069;22;20036;-89
2022/02/11 05:23:43;;;;;;;10.25;2.30;;;1.30;99.90;;;;;;6281761;22;20018;-90
2022/02/11 05:26:08;;;;;;;15.35;2.90;;;1.30;99.90;;;;;;6281977;22;20381;-90
2022/02/11 05:28:34;;;;;;;17.65;2.72;;;1.30;99.90;;;;;;6281751;22;20007;-89
2022/02/11 05:31:00;;;;;;;8.75;2.33;;;1.30;99.90;;;;;;6281275;22;20019;-90
2022/02/11 05:33:27;;;;;;;13.23;3.22;;;1.30;99.90;;;;;;6281593;22;20102;-90
2022/02/11 05:35:52;;;;;;;12.02;2.50;;;1.30;99.90;;;;;;6281734;22;20426;-91
2022/02/11 05:38:19;;;;;;;12.48;3.63;;;1.40;99.90;;;;;;6281267;22;20010;-91
2022/02/11 05:40:45;;;;;;;12.98;2.90;;;1.30;99.90;;;;;;6282151;22;20048;-91
2022/02/11 05:43:11;;;;;;;10.02;2.67;;;1.30;99.90;;;;;;6281012;22;20011;-92
2022/02/11 05:45:37;;;;;;;8.93;2.40;;;1.30;99.90;;;;;;6281453;22;20093;-90
2022/02/11 05:48:04;;;;;;;13.10;2.25;;;1.30;99.90;;;;;;6308953;22;20007;-91
2022/02/11 05:50:30;;;;;;;7.50;2.35;;;1.20;99.90;;;;;;6281883;22;20004;-90
2022/02/11 05:52:56;;;;;;;9.18;2.55;;;1.20;99.90;;;;;;6281779;22;20089;-90
2022/02/11 05:55:22;;;;;;;8.23;2.67;;;1.10;99.90;;;;;;6280313;22;20003;-91
2022/02/11 05:57:47;;;;;;;16.27;3.22;;;1.10;99.90;;;;;;6281480;22;20011;-91
2022/02/11 06:00:13;;;;;;;9.65;2.58;;;1.10;99.90;;;;;;6281471;22;20007;-91
2022/02/11 06:02:39;;;;;;;12.55;2.90;;;1.10;99.90;;;;;;6281462;22;20015;-91
2022/02/11 06:05:05;;;;;;;10.13;2.80;;;1.00;99.90;;;;;;6281580;22;20011;-90
2022/02/11 06:07:31;;;;;;;7.57;2.40;;;1.00;99.90;;;;;;6280935;22;20026;-91
2022/02/11 06:09:58;;;;;;;10.98;2.22;;;1.00;99.90;;;;;;6281444;22;20003;-90
2022/02/11 06:12:24;;;;;;;7.55;2.70;;;0.80;99.90;;;;;;6281319;22;20086;-90
2022/02/11 06:14:50;;;;;;;16.33;3.05;;;0.80;99.90;;;;;;6281036;22;20007;-91
2022/02/11 06:17:16;;;;;;;8.70;4.05;;;0.80;99.90;;;;;;6281311;22;20007;-91
2022/02/11 06:19:45;;;;;;;6.55;2.03;;;0.80;99.90;;;;;;6280731;22;20007;-91
2022/02/11 06:22:11;;;;;;;9.30;2.30;;;0.70;99.90;;;;;;6282240;22;20006;-91
2022/02/11 06:24:36;;;;;;;22.35;3.55;;;0.70;99.90;;;;;;6283048;22;20090;-91
2022/02/11 06:27:02;;;;;;;17.20;2.88;;;0.70;99.90;;;;;;6282179;22;20003;-91
2022/02/11 06:29:28;;;;;;;8.10;2.47;;;0.70;99.90;;;;;;6281608;22;20342;-91
2022/02/11 06:31:54;;;;;;;15.35;3.15;;;0.70;99.90;;;;;;6281369;22;20068;-89
2022/02/11 06:34:19;;;;;;;15.95;3.33;;;0.70;99.90;;;;;;6281213;22;20375;-90
2022/02/11 06:36:45;;;;;;;13.55;3.53;;;0.80;99.90;;;;;;6280530;22;20097;-90
2022/02/11 06:39:11;;;;;;;17.15;3.83;;;0.80;99.90;;;;;;6281246;22;19999;-90
2022/02/11 06:41:37;;;;;;;17.50;3.55;;;0.80;99.90;;;;;;6288626;22;20293;-90
2022/02/11 06:44:03;;;;;;;12.38;3.03;;;0.80;99.90;;;;;;6285544;22;20015;-91
2022/02/11 06:46:29;;;;;;;10.05;2.90;;;0.70;99.90;;;;;;6280807;22;20003;-90
2022/02/11 06:48:54;;;;;;;9.68;3.03;;;0.70;99.90;;;;;;6307457;22;20009;-90
2022/02/11 06:51:20;;;;;;;12.27;2.95;;;0.60;99.90;;;;;;6280993;22;19999;-89
2022/02/11 06:53:46;;;;;;;11.30;3.10;;;0.70;99.90;;;;;;6281470;22;20007;-91
2022/02/11 06:56:11;;;;;;;15.10;4.32;;;0.70;99.90;;;;;;6282674;22;20002;-92
2022/02/11 06:58:37;;;;;;;16.83;3.58;;;0.70;99.90;;;;;;6280351;22;20003;-91
2022/02/11 07:01:03;;;;;;;18.85;3.53;;;0.70;99.90;;;;;;6280355;22;20056;-91
2022/02/11 07:03:29;;;;;;;12.05;3.22;;;0.70;99.90;;;;;;6280277;22;20093;-92
2022/02/11 07:05:58;;;;;;;15.43;3.53;;;0.70;99.90;;;;;;6281198;22;20003;-91
2022/02/11 07:08:25;;;;;;;14.50;3.60;;;0.80;99.90;;;;;;6281372;22;20000;-92
2022/02/11 07:10:51;;;;;;;10.15;3.13;;;0.80;99.90;;;;;;6281440;22;20334;-90
2022/02/11 07:13:17;;;;;;;7.93;3.17;;;0.80;99.90;;;;;;6281825;22;20004;-91
2022/02/11 07:15:44;;;;;;;15.88;3.63;;;0.80;99.90;;;;;;6290354;22;20025;-91
2022/02/11 07:18:10;;;;;;;14.32;4.00;;;0.80;99.90;;;;;;6286591;22;20102;-91
2022/02/11 07:20:37;;;;;;;19.35;4.53;;;0.80;99.90;;;;;;6288869;22;20053;-91
2022/02/11 07:23:04;;;;;;;16.50;3.97;;;0.80;99.90;;;;;;6283214;22;20019;-91
2022/02/11 07:25:30;;;;;;;14.80;4.78;;;0.80;99.90;;;;;;6286770;22;20010;-91
2022/02/11 07:27:55;;;;;;;18.25;4.90;;;0.90;99.90;;;;;;6285341;22;20013;-91
2022/02/11 07:30:21;;;;;;;13.32;5.10;;;0.90;99.90;;;;;;6282028;22;20031;-91
2022/02/11 07:32:48;;;;;;;17.75;4.90;;;0.90;99.90;;;;;;6281516;22;20026;-92
2022/02/11 07:35:14;;;;;;;16.80;4.32;;;0.90;99.90;;;;;;6281267;22;20003;-91
2022/02/11 07:37:40;;;;;;;17.38;4.80;;;0.90;99.90;;;;;;6283891;22;20048;-92
2022/02/11 07:40:06;;;;;;;15.88;4.15;;;1.00;99.90;;;;;;6281731;22;20007;-91
2022/02/11 07:42:33;;;;;;;24.17;4.75;;;1.00;99.90;;;;;;6280935;22;19995;-92
2022/02/11 07:44:59;;;;;;;12.57;4.30;;;1.00;99.90;;;;;;6283210;22;20015;-92
2022/02/11 07:47:29;;;;;;;12.25;4.70;;;1.00;99.90;;;;;;6284339;22;20087;-92
2022/02/11 07:49:56;;;;;;;23.05;5.70;;;1.00;99.90;;;;;;6284707;22;20003;-92
2022/02/11 07:52:22;;;;;;;28.67;7.20;;;1.00;99.90;;;;;;6284539;22;20423;-91
2022/02/11 07:54:48;;;;;;;23.00;5.78;;;1.10;99.90;;;;;;6290576;22;20379;-92
2022/02/11 07:57:13;;;;;;;23.13;6.97;;;1.10;99.90;;;;;;6290826;22;20006;-91
2022/02/11 07:59:39;;;;;;;18.60;6.03;;;1.10;99.90;;;;;;6287115;22;19999;-93
2022/02/11 08:02:06;;;;;;;17.13;4.82;;;1.10;99.90;;;;;;6283711;22;20007;-92
2022/02/11 08:04:32;;;;;;;16.27;4.13;;;1.10;99.90;;;;;;6282547;22;20122;-93
2022/02/11 08:06:58;;;;;;;13.73;4.13;;;1.10;99.90;;;;;;6309850;22;20007;-93
2022/02/11 08:09:24;;;;;;;18.48;4.18;;;1.10;99.90;;;;;;6283338;22;20003;-93
2022/02/11 08:11:50;;;;;;;14.32;5.35;;;1.10;99.90;;;;;;6282971;22;20007;-91
2022/02/11 08:14:16;;;;;;;18.38;4.53;;;1.20;99.90;;;;;;6286127;22;20003;-92
2022/02/11 08:16:41;;;;;;;12.95;4.70;;;1.20;99.90;;;;;;6290803;22;20011;-92
2022/02/11 08:19:07;;;;;;;15.55;5.22;;;1.20;99.90;;;;;;6284858;22;19999;-90
2022/02/11 08:21:36;;;;;;;15.15;4.68;;;1.20;99.90;;;;;;6284556;22;20027;-91
2022/02/11 08:24:02;;;;;;;11.98;4.88;;;1.20;99.90;;;;;;6282973;22;20023;-91
2022/02/11 08:26:29;;;;;;;16.77;5.40;;;1.20;99.90;;;;;;6280671;22;20003;-91
2022/02/11 08:28:58;;;;;;;18.98;5.38;;;1.30;99.90;;;;;;6282749;22;20003;-90
2022/02/11 08:31:25;;;;;;;18.02;4.90;;;1.30;99.90;;;;;;6282581;22;20007;-91
2022/02/11 08:33:51;;;;;;;13.55;4.05;;;1.40;99.90;;;;;;6281857;22;20009;-90
2022/02/11 08:36:19;;;;;;;14.60;4.93;;;1.40;99.90;;;;;;6282779;22;20003;-90
2022/02/11 08:38:46;;;;;;;14.05;4.50;;;1.50;99.90;;;;;;6282973;22;20011;-91
2022/02/11 08:41:12;;;;;;;14.15;4.65;;;1.60;99.90;;;;;;6256766;22;20003;-89
2022/02/11 08:43:38;;;;;;;15.77;4.28;;;1.60;99.90;;;;;;6312684;22;20092;-90
2022/02/11 08:46:04;;;;;;;13.82;4.90;;;1.70;99.90;;;;;;6283776;22;20338;-90
2022/02/11 08:48:30;;;;;;;15.68;4.13;;;1.80;99.90;;;;;;6282557;22;20007;-90
2022/02/11 08:50:59;;;;;;;12.95;4.10;;;1.90;99.90;;;;;;6282021;22;20086;-90
2022/02/11 08:53:25;;;;;;;12.68;4.35;;;1.90;99.90;;;;;;6281493;22;20010;-90
2022/02/11 08:55:51;;;;;;;22.70;6.43;;;2.00;99.90;;;;;;6282252;22;20007;-91
2022/02/11 08:58:20;;;;;;;19.40;6.75;;;2.00;99.90;;;;;;6283089;22;19999;-90
2022/02/11 09:00:48;;;;;;;29.30;6.55;;;2.10;99.90;;;;;;6282446;22;20007;-90
2022/02/11 09:03:15;;;;;;;22.38;6.95;;;2.20;99.90;;;;;;6282398;22;19999;-90
2022/02/11 09:05:41;;;;;;;17.38;5.88;;;2.20;99.90;;;;;;6282730;22;20015;-91
2022/02/11 09:08:07;;;;;;;18.55;5.82;;;2.20;99.90;;;;;;6282546;22;20058;-91
2022/02/11 09:10:33;;;;;;;17.27;6.13;;;2.20;99.90;;;;;;6282986;22;20014;-90
2022/02/11 09:13:00;;;;;;;18.48;4.70;;;2.20;99.90;;;;;;6281843;22;20414;-90
2022/02/11 09:15:27;;;;;;;18.52;4.75;;;2.30;99.90;;;;;;6280908;22;20011;-93
2022/02/11 09:17:54;;;;;;;14.63;4.65;;;2.30;99.90;;;;;;6281241;22;20446;-90
2022/02/11 09:20:21;;;;;;;16.20;5.15;;;2.20;99.90;;;;;;6280992;22;20014;-89
2022/02/11 09:22:47;;;;;;;17.63;5.13;;;2.20;99.90;;;;;;6281216;22;20003;-90
2022/02/11 09:25:14;;;;;;;14.43;5.28;;;2.20;99.90;;;;;;6281921;22;20011;-90
2022/02/11 09:27:46;;;;;;;15.38;5.93;;;2.30;99.90;;;;;;6281718;22;19999;-91
2022/02/11 09:30:20;;;;;;;14.93;5.03;;;2.40;99.90;;;;;;6309085;22;20026;-91
2022/02/11 09:32:47;;;;;;;17.92;5.65;;;2.40;99.90;;;;;;6281744;22;20029;-91
2022/02/11 09:35:15;;;;;;;21.73;6.68;;;2.50;99.90;;;;;;6281759;22;20106;-90
2022/02/11 09:37:41;;;;;;;21.42;6.00;;;2.50;99.90;;;;;;6281478;22;20022;-90
2022/02/11 09:40:10;;;;;;;18.33;7.13;;;2.50;99.90;;;;;;6281733;22;20003;-90
2022/02/11 09:42:38;;;;;;;13.13;5.40;;;2.60;99.90;;;;;;6281180;22;20017;-90
2022/02/11 09:45:06;;;;;;;14.10;5.55;;;2.60;99.90;;;;;;6281088;22;20088;-91
2022/02/11 09:47:33;;;;;;;15.93;6.68;;;2.70;99.90;;;;;;6281221;22;19999;-89
2022/02/11 09:49:59;;;;;;;21.40;6.30;;;2.80;99.90;;;;;;6280566;22;20089;-90
2022/02/11 09:52:27;;;;;;;22.30;6.03;;;2.80;99.90;;;;;;6280253;22;20390;-90
2022/02/11 09:55:31;;;;;;;19.75;6.68;;;2.90;99.90;;;;;;6283510;22;20003;-90
2022/02/11 09:57:43;;;;;;;22.70;6.65;;;3.10;99.90;;;;;;6309320;22;20493;-90
2022/02/11 10:00:10;;;;;;;18.75;6.47;;;3.20;99.90;;;;;;6282505;22;20018;-92
2022/02/11 10:02:51;;;;;;;29.67;8.82;;;3.30;99.90;;;;;;6281988;22;20048;-92
2022/02/11 10:05:35;;;;;;;18.77;6.38;;;3.40;99.90;;;;;;6282938;22;20049;-91
2022/02/11 10:08:03;;;;;;;25.15;7.00;;;3.40;99.90;;;;;;6286625;22;20014;-91
2022/02/11 10:10:42;;;;;;;22.20;6.93;;;3.50;99.90;;;;;;6284751;22;20010;-91
2022/02/11 10:13:22;;;;;;;15.73;6.45;;;3.50;99.90;;;;;;6286666;22;20023;-90
2022/02/11 10:15:51;;;;;;;18.42;8.23;;;3.60;99.90;;;;;;6286755;22;20015;-90
2022/02/11 10:18:20;;;;;;;23.80;7.40;;;3.60;99.90;;;;;;6281769;22;20090;-92
2022/02/11 10:20:52;;;;;;;22.42;6.82;;;3.70;99.90;;;;;;6282003;22;20046;-92
2022/02/11 10:23:23;;;;;;;21.25;6.60;;;3.70;99.90;;;;;;6281761;22;20208;-91
2022/02/11 10:26:07;;;;;;;28.73;8.20;;;3.80;99.90;;;;;;6282440;22;20000;-91
2022/02/11 10:28:37;;;;;;;26.25;6.18;;;3.90;99.90;;;;;;6285667;22;20434;-91
2022/02/11 10:31:08;;;;;;;17.73;6.75;;;3.90;99.90;;;;;;6277506;22;20019;-91
2022/02/11 10:33:59;;;;;;;20.30;8.00;;;4.00;99.90;;;;;;6288307;22;20588;-92
2022/02/11 10:36:39;;;;;;;27.95;8.95;;;4.20;99.90;;;;;;6283148;22;20038;-90
2022/02/11 10:39:19;;;;;;;26.23;9.43;;;4.30;99.90;;;;;;6284489;22;20007;-92
2022/02/11 10:41:54;;;;;;;32.33;10.25;;;4.60;99.90;;;;;;6282315;22;20037;-92
2022/02/11 10:44:29;;;;;;;26.23;8.70;;;4.90;99.90;;;;;;6282059;22;20018;-90
2022/02/11 10:47:02;;;;;;;26.45;9.43;;;5.20;99.90;;;;;;6282901;22;20423;-89
2022/02/11 10:49:40;;;;;;;27.92;9.80;;;5.30;99.90;;;;;;6282748;22;20004;-91
2022/02/11 10:52:19;;;;;;;21.95;8.10;;;5.30;99.90;;;;;;6288898;22;20013;-90
2022/02/11 10:54:50;;;;;;;27.65;9.48;;;5.20;99.90;;;;;;6285335;22;20007;-90
2022/02/11 10:57:19;;;;;;;23.95;8.63;;;5.20;99.90;;;;;;6283639;22;20049;-91
2022/02/11 10:59:47;;;;;;;28.80;8.95;;;5.00;99.90;;;;;;6282422;22;20507;-89
2022/02/11 11:02:15;;;;;;;20.75;8.75;;;4.90;99.90;;;;;;6283213;22;20082;-91
2022/02/11 11:04:41;;;;;;;23.65;9.73;;;4.80;99.90;;;;;;6284155;22;20060;-90
2022/02/11 11:07:08;;;;;;;20.83;9.30;;;4.80;99.90;;;;;;6282729;22;20003;-92
2022/02/11 11:09:35;;;;;;;26.20;9.07;;;4.80;99.90;;;;;;6282837;22;20391;-91
2022/02/11 11:12:03;;;;;;;23.45;9.70;;;4.70;99.90;;;;;;6281573;22;20000;-90
2022/02/11 11:14:29;;;;;;;24.15;9.90;;;4.70;99.90;;;;;;6282451;22;20067;-92
2022/02/11 11:16:58;;;;;;;22.75;8.77;;;4.60;99.90;;;;;;6283658;22;20003;-91
2022/02/11 11:19:24;;;;;;;21.83;9.50;;;4.60;99.90;;;;;;6282463;22;19999;-90
2022/02/11 11:22:11;;;;;;;19.40;7.78;;;4.70;99.90;;;;;;6283112;22;20076;-91
2022/02/11 11:24:58;;;;;;;26.20;8.23;;;4.60;99.90;;;;;;6283112;22;20011;-92
2022/02/11 11:27:42;;;;;;;19.42;8.20;;;4.70;99.90;;;;;;6281500;22;20023;-92
2022/02/11 11:30:27;;;;;;;22.20;8.60;;;4.70;99.90;;;;;;6282799;22;20493;-92
2022/02/11 11:33:05;;;;;;;29.20;10.63;;;4.80;99.90;;;;;;6280507;22;20034;-91
2022/02/11 11:35:34;;;;;;;12.70;7.07;;;4.80;99.90;;;;;;6280358;22;20007;-91
2022/02/11 11:38:11;;;;;;;16.17;5.95;;;4.80;99.90;;;;;;6280493;22;20011;-91
2022/02/11 11:40:37;;;;;;;20.15;6.97;;;4.90;99.90;;;;;;6281959;22;20013;-91
2022/02/11 11:43:16;;;;;;;19.67;7.22;;;4.90;99.90;;;;;;6281271;22;20098;-91
2022/02/11 11:45:43;;;;;;;22.05;7.43;;;5.00;99.90;;;;;;6283633;22;20011;-90
2022/02/11 11:48:16;;;;;;;17.25;7.13;;;5.00;99.90;;;;;;6285906;22;20029;-91
2022/02/11 11:50:45;;;;;;;23.67;7.57;;;5.20;99.90;;;;;;6291902;22;20007;-90
2022/02/11 11:53:25;;;;;;;14.90;5.90;;;5.60;99.90;;;;;;6303606;22;19991;-90
2022/02/11 11:55:51;;;;;;;13.38;5.55;;;6.20;99.90;;;;;;6302644;22;20148;-90
2022/02/11 11:58:46;;;;;;;14.30;5.03;;;6.90;99.90;;;;;;6293370;22;20050;-90
2022/02/11 12:01:19;;;;;;;13.07;5.32;;;7.50;99.90;;;;;;6292486;22;19995;-91
2022/02/11 12:04:23;;;;;;;12.95;4.38;;;7.80;99.90;;;;;;6292178;22;20018;-90
2022/02/11 12:07:05;;;;;;;21.15;5.07;;;7.90;99.90;;;;;;6286709;22;20043;-91
2022/02/11 12:09:31;;;;;;;9.25;3.80;;;7.70;99.90;;;;;;6281461;22;20003;-91
2022/02/11 12:12:03;;;;;;;10.15;4.10;;;7.60;99.90;;;;;;6281139;22;20014;-93
2022/02/11 12:14:34;;;;;;;8.30;3.72;;;7.40;99.90;;;;;;6282798;22;20019;-91
2022/02/11 12:17:03;;;;;;;13.57;3.63;;;7.20;99.90;;;;;;6283359;22;20083;-91
2022/02/11 12:19:30;;;;;;;10.73;2.60;;;7.10;99.90;;;;;;6256437;22;20075;-91
2022/02/11 12:21:57;;;;;;;10.80;2.90;;;7.20;99.90;;;;;;6280882;22;20087;-91
2022/02/11 12:27:23;;;;;;;6.68;1.70;;;7.30;99.90;;;;;;6309997;22;20014;-91
2022/02/11 12:29:58;;;;;;;7.72;2.17;;;7.60;99.90;;;;;;6284187;22;20007;-90
2022/02/11 12:32:39;;;;;;;15.68;3.47;;;7.90;99.90;;;;;;6285055;22;20026;-91
2022/02/11 12:35:07;;;;;;;9.40;2.05;;;8.30;99.90;;;;;;6283084;22;20003;-90
2022/02/11 12:37:34;;;;;;;7.15;1.88;;;8.60;99.90;;;;;;6284460;22;20371;-90
2022/02/11 12:40:03;;;;;;;6.78;2.20;;;9.00;99.90;;;;;;6284396;22;20015;-91
2022/02/11 12:42:30;;;;;;;8.30;2.05;;;9.10;99.90;;;;;;6283401;22;20007;-91
2022/02/11 12:44:57;;;;;;;7.38;1.40;;;9.10;99.90;;;;;;6282186;22;20015;-90
2022/02/11 12:47:23;;;;;;;8.65;1.52;;;9.20;99.90;;;;;;6281880;22;19999;-91
2022/02/11 12:49:51;;;;;;;5.78;1.20;;;9.20;99.90;;;;;;6281570;22;20077;-90
2022/02/11 12:52:29;;;;;;;7.78;1.77;;;9.20;99.40;;;;;;6281833;22;20000;-91
2022/02/11 12:55:05;;;;;;;7.90;1.63;;;9.30;98.80;;;;;;6309022;22;20061;-91
2022/02/11 12:57:32;;;;;;;4.07;1.20;;;9.30;98.00;;;;;;6281751;22;20030;-91
2022/02/11 12:59:58;;;;;;;2.42;1.10;;;9.20;97.10;;;;;;6283274;22;20166;-89
2022/02/11 13:02:26;;;;;;;4.63;1.25;;;9.30;96.80;;;;;;6281799;22;20113;-91
2022/02/11 13:05:13;;;;;;;9.45;1.70;;;9.30;96.50;;;;;;6282575;22;20552;-91
2022/02/11 13:07:41;;;;;;;8.95;1.70;;;9.40;96.10;;;;;;6282517;22;20003;-91
2022/02/11 13:10:09;;;;;;;12.82;2.08;;;9.40;94.10;;;;;;6282803;22;20007;-90
2022/02/11 13:12:37;;;;;;;11.90;1.98;;;9.30;93.60;;;;;;6282685;22;20011;-91
2022/02/11 13:15:07;;;;;;;10.15;1.65;;;9.10;93.60;;;;;;6281987;22;20011;-90
2022/02/11 13:17:33;;;;;;;10.80;1.98;;;9.00;93.60;;;;;;6282709;22;20011;-91
2022/02/11 13:20:27;;;;;;;4.88;1.60;;;9.00;94.00;;;;;;6282399;22;20011;-92
2022/02/11 13:22:57;;;;;;;5.78;1.42;;;9.00;94.30;;;;;;6278545;22;20434;-91
2022/02/11 13:25:23;;;;;;;7.07;1.73;;;8.90;94.10;;;;;;6282647;22;20009;-92
2022/02/11 13:27:56;;;;;;;8.05;1.80;;;8.90;94.10;;;;;;6282297;22;20015;-92
2022/02/11 13:30:45;;;;;;;6.03;1.40;;;9.00;94.40;;;;;;6282491;22;20023;-90
2022/02/11 13:33:23;;;;;;;5.57;1.13;;;8.90;94.10;;;;;;6282584;22;20003;-90
2022/02/11 13:35:58;;;;;;;4.43;1.63;;;8.80;93.20;;;;;;6282070;22;20007;-91
2022/02/11 13:38:38;;;;;;;5.43;1.50;;;8.70;92.80;;;;;;6282404;22;20054;-91
2022/02/11 13:41:10;;;;;;;7.25;1.42;;;8.70;93.10;;;;;;6281802;22;20011;-92
2022/02/11 13:44:06;;;;;;;6.57;1.35;;;8.60;93.00;;;;;;6282716;22;20094;-91
2022/02/11 13:46:34;;;;;;;7.00;1.67;;;8.70;93.30;;;;;;6280412;22;20074;-91
2022/02/11 13:49:08;;;;;;;5.97;1.27;;;8.70;92.90;;;;;;6282901;22;20007;-90
2022/02/11 13:51:35;;;;;;;11.10;3.38;;;8.70;93.20;;;;;;6282963;22;20069;-89
2022/02/11 13:54:17;;;;;;;8.75;1.80;;;8.70;93.20;;;;;;6283148;22;20082;-89
2022/02/11 13:56:49;;;;;;;6.07;1.65;;;8.70;93.00;;;;;;6282358;22;20007;-92
2022/02/11 13:59:18;;;;;;;6.68;2.35;;;8.60;92.90;;;;;;6281297;22;20011;-92
2022/02/11 14:01:45;;;;;;;11.75;1.80;;;8.50;92.80;;;;;;6279567;22;20011;-88
2022/02/11 14:04:11;;;;;;;11.50;1.98;;;8.50;92.90;;;;;;6307935;22;20026;-91
2022/02/11 14:06:51;;;;;;;4.07;2.03;;;8.40;93.30;;;;;;6308680;22;20044;-90
2022/02/11 14:09:36;;;;;;;8.82;1.85;;;8.50;93.20;;;;;;6282229;22;20007;-90
2022/02/11 14:12:03;;;;;;;7.20;1.42;;;8.40;93.10;;;;;;6283234;22;20007;-90
2022/02/11 14:14:31;;;;;;;4.70;1.50;;;8.30;93.30;;;;;;6280451;22;20004;-91
2022/02/11 14:17:00;;;;;;;3.63;1.98;;;8.30;93.30;;;;;;6280707;22;20007;-90
2022/02/11 14:19:27;;;;;;;5.53;1.48;;;8.30;93.20;;;;;;6280810;22;20096;-91
2022/02/11 14:22:01;;;;;;;10.57;1.65;;;8.20;93.30;;;;;;6280168;22;20015;-89
2022/02/11 14:24:28;;;;;;;4.35;1.50;;;8.30;93.30;;;;;;6281436;22;20026;-91
2022/02/11 14:26:54;;;;;;;7.05;2.17;;;8.20;93.00;;;;;;6280699;22;20023;-90
2022/02/11 14:29:21;;;;;;;9.43;3.00;;;8.10;93.00;;;;;;6280990;22;20023;-91
2022/02/11 14:31:48;;;;;;;10.57;2.00;;;8.00;93.20;;;;;;6280299;22;20019;-91
2022/02/11 14:34:14;;;;;;;5.25;1.70;;;8.00;93.50;;;;;;6280709;22;20076;-91
2022/02/11 14:36:43;;;;;;;5.95;1.65;;;7.90;93.40;;;;;;6281019;22;19999;-91
2022/02/11 14:39:14;;;;;;;7.35;2.05;;;7.90;93.50;;;;;;6280797;22;20080;-91
2022/02/11 14:41:47;;;;;;;10.02;2.28;;;7.80;93.60;;;;;;6280409;22;20367;-90
2022/02/11 14:44:19;;;;;;;10.98;1.88;;;7.80;93.70;;;;;;6281891;22;20065;-90
2022/02/11 14:46:46;;;;;;;7.60;1.70;;;7.80;93.80;;;;;;6280698;22;20053;-90
2022/02/11 14:49:12;;;;;;;6.88;1.90;;;7.60;93.80;;;;;;6280636;22;20049;-91
2022/02/11 14:51:38;;;;;;;5.78;1.90;;;7.50;93.90;;;;;;6280264;22;19999;-92
2022/02/11 14:54:09;;;;;;;7.95;1.70;;;7.40;94.20;;;;;;6280715;22;20015;-91
2022/02/11 14:56:39;;;;;;;7.28;2.00;;;7.30;94.40;;;;;;6280894;22;20003;-90
2022/02/11 14:59:08;;;;;;;8.98;2.13;;;7.30;94.50;;;;;;6280745;22;20011;-91
2022/02/11 15:01:34;;;;;;;9.75;1.70;;;7.20;94.70;;;;;;6280104;22;20426;-91
2022/02/11 15:04:00;;;;;;;10.80;2.00;;;7.10;94.90;;;;;;6279506;22;20527;-90
2022/02/11 15:06:26;;;;;;;10.60;2.35;;;7.10;95.10;;;;;;6280006;22;20011;-89
2022/02/11 15:08:51;;;;;;;7.32;2.05;;;7.00;95.40;;;;;;6279979;22;20011;-92
2022/02/11 15:11:17;;;;;;;9.02;2.42;;;7.00;95.60;;;;;;6279191;22;20006;-88
2022/02/11 15:13:44;;;;;;;12.43;2.35;;;7.00;95.80;;;;;;6280050;22;20011;-89
2022/02/11 15:16:10;;;;;;;10.98;1.85;;;7.00;95.90;;;;;;6280215;22;20003;-90
2022/02/11 15:18:36;;;;;;;6.47;1.70;;;6.90;95.90;;;;;;6279941;22;20014;-90
2022/02/11 15:21:06;;;;;;;14.60;2.17;;;6.90;96.10;;;;;;6279978;22;20007;-90
2022/02/11 15:23:32;;;;;;;8.63;1.85;;;6.90;96.10;;;;;;6279456;22;20022;-90
2022/02/11 15:26:02;;;;;;;10.50;2.03;;;6.90;96.30;;;;;;6280117;22;20007;-90
2022/02/11 15:28:31;;;;;;;10.98;1.98;;;6.90;96.30;;;;;;6278748;22;20007;-90
2022/02/11 15:30:57;;;;;;;8.40;2.10;;;6.80;96.40;;;;;;6277619;22;20011;-90
2022/02/11 15:33:23;;;;;;;8.65;1.80;;;6.80;96.60;;;;;;6278283;22;20111;-90
2022/02/11 15:35:49;;;;;;;10.77;2.40;;;6.80;96.80;;;;;;6277277;22;19999;-92
2022/02/11 15:38:15;;;;;;;8.63;1.98;;;6.70;96.90;;;;;;6278225;22;20480;-90
2022/02/11 15:40:41;;;;;;;13.70;3.25;;;6.70;97.10;;;;;;6278057;22;20026;-91
2022/02/11 15:43:07;;;;;;;7.75;2.38;;;6.60;97.30;;;;;;6278283;22;20011;-90
2022/02/11 15:45:34;;;;;;;10.18;2.13;;;6.60;97.60;;;;;;6277638;22;20011;-90
2022/02/11 15:48:00;;;;;;;8.85;2.15;;;6.60;97.80;;;;;;6279543;22;20093;-92
2022/02/11 15:50:26;;;;;;;11.70;3.03;;;6.60;98.00;;;;;;6279343;22;20406;-92
2022/02/11 15:52:55;;;;;;;18.98;2.70;;;6.50;98.10;;;;;;6280235;22;19999;-90
2022/02/11 15:55:23;;;;;;;6.38;1.83;;;6.40;98.20;;;;;;6283803;22;20014;-90
2022/02/11 15:57:49;;;;;;;8.48;1.92;;;6.40;98.40;;;;;;6285853;22;20003;-91
2022/02/11 16:00:15;;;;;;;8.88;2.08;;;6.30;98.60;;;;;;6311958;22;20003;-89
2022/02/11 16:02:42;;;;;;;8.98;1.98;;;6.30;98.80;;;;;;6282439;22;20113;-92
2022/02/11 16:05:09;;;;;;;29.58;11.73;;;6.30;99.10;;;;;;6314491;22;20007;-90
2022/02/11 16:07:36;;;;;;;20.80;7.20;;;6.20;99.30;;;;;;6290173;22;20003;-90
2022/02/11 16:10:07;;;;;;;29.88;11.13;;;6.20;99.60;;;;;;6289982;22;20097;-90
2022/02/11 16:12:33;;;;;;;;;;;6.10;99.80;;;;;;6295420;22;19998;-91
2022/02/11 16:15:02;;;;;;;22.80;7.75;;;6.10;99.90;;;;;;6291464;22;19925;-91
2022/02/11 16:17:29;;;;;;;14.63;6.20;;;6.00;99.90;;;;;;6286195;22;20003;-91
2022/02/11 16:19:55;;;;;;;16.60;3.63;;;6.00;99.90;;;;;;6284668;22;20003;-91
2022/02/11 16:22:24;;;;;;;17.30;4.22;;;6.00;99.90;;;;;;6283763;22;20077;-89
2022/02/11 16:24:53;;;;;;;10.25;3.05;;;6.00;99.90;;;;;;6283101;22;20015;-91
2022/02/11 16:27:19;;;;;;;12.15;2.00;;;6.00;99.90;;;;;;6281764;22;20007;-90
2022/02/11 16:29:46;;;;;;;12.40;2.70;;;6.00;99.90;;;;;;6280748;22;20015;-89
2022/02/11 16:32:12;;;;;;;10.63;2.33;;;5.90;99.90;;;;;;6279830;22;20426;-90
2022/02/11 16:34:38;;;;;;;12.30;2.08;;;5.80;99.90;;;;;;6280741;22;20000;-89
2022/02/11 16:37:05;;;;;;;7.88;1.75;;;5.80;99.90;;;;;;6278279;22;20011;-91
2022/02/11 16:39:34;;;;;;;9.57;1.98;;;5.80;99.90;;;;;;6278283;22;20012;-91
2022/02/11 16:42:03;;;;;;;10.35;1.90;;;5.70;99.90;;;;;;6281144;22;20004;-91
2022/02/11 16:44:30;;;;;;;13.88;2.60;;;5.70;99.90;;;;;;6281332;22;20014;-90
2022/02/11 16:46:55;;;;;;;10.30;2.28;;;5.60;99.90;;;;;;6281417;22;20005;-90
2022/02/11 16:49:22;;;;;;;28.08;7.85;;;5.60;99.90;;;;;;6282122;22;20094;-89
2022/02/11 16:51:48;;;;;;;34.33;12.35;;;5.50;99.90;;;;;;6283521;22;20000;-89
2022/02/11 16:54:14;;;;;;;66.15;24.33;;;5.50;99.90;;;;;;6282124;22;20010;-91